createdAt,value
2017-11-17T00:00:49.837Z,30.95
2017-11-17T00:03:17.329Z,34.10
2017-11-17T00:05:44.840Z,31.02
2017-11-17T00:08:12.381Z,27.48
2017-11-17T00:10:39.992Z,30.15
2017-11-17T00:13:07.640Z,31.48
2017-11-17T00:15:35.207Z,30.00
2017-11-17T00:18:03.489Z,29.00
2017-11-17T00:20:31.764Z,38.80
2017-11-17T00:23:00.048Z,28.67
2017-11-17T00:25:28.354Z,28.00
2017-11-17T00:27:55.852Z,28.05
2017-11-17T00:30:23.353Z,30.27
2017-11-17T00:32:50.885Z,33.05
2017-11-17T00:35:19.193Z,29.63
2017-11-17T00:37:46.698Z,30.05
2017-11-17T00:40:14.193Z,33.42
2017-11-17T00:42:42.457Z,32.75
2017-11-17T00:45:10.758Z,33.53
2017-11-17T00:47:39.017Z,37.28
2017-11-17T00:50:07.326Z,35.58
2017-11-17T00:52:34.872Z,33.55
2017-11-17T00:55:02.367Z,35.20
2017-11-17T00:57:29.884Z,35.78
2017-11-17T00:59:57.389Z,36.42
2017-11-17T01:02:24.888Z,37.80
2017-11-17T01:04:53.190Z,38.03
2017-11-17T01:07:20.690Z,37.47
2017-11-17T01:09:48.185Z,37.22
2017-11-17T01:12:16.453Z,36.58
2017-11-17T01:14:44.720Z,38.58
2017-11-17T01:17:12.225Z,41.05
2017-11-17T01:19:39.726Z,39.20
2017-11-17T01:22:07.249Z,41.97
2017-11-17T01:24:34.769Z,32.45
2017-11-17T01:27:03.031Z,35.25
2017-11-17T01:29:31.344Z,37.08
2017-11-17T01:31:58.856Z,36.45
2017-11-17T01:34:27.123Z,35.42
2017-11-17T01:36:54.627Z,30.48
2017-11-17T01:39:22.141Z,32.08
2017-11-17T01:41:49.638Z,36.47
2017-11-17T01:44:17.897Z,34.75
2017-11-17T01:46:46.211Z,42.92
2017-11-17T01:49:13.733Z,38.55
2017-11-17T01:51:42.008Z,35.60
2017-11-17T01:54:10.268Z,36.90
2017-11-17T01:56:38.546Z,43.03
2017-11-17T01:59:06.050Z,44.22
2017-11-17T02:01:33.593Z,36.03
2017-11-17T02:04:01.901Z,40.10
2017-11-17T02:06:29.428Z,34.53
2017-11-17T02:08:56.941Z,42.45
2017-11-17T02:11:24.482Z,31.73
2017-11-17T02:13:52.009Z,32.05
2017-11-17T02:16:20.268Z,31.00
2017-11-17T02:18:48.545Z,31.12
2017-11-17T02:21:16.825Z,27.73
2017-11-17T02:23:45.101Z,29.70
2017-11-17T02:26:13.408Z,29.87
2017-11-17T02:28:40.921Z,30.02
2017-11-17T02:31:08.419Z,36.38
2017-11-17T02:33:35.923Z,31.70
2017-11-17T02:36:03.442Z,29.33
2017-11-17T02:38:30.956Z,27.27
2017-11-17T02:40:58.475Z,29.35
2017-11-17T02:43:25.977Z,32.25
2017-11-17T02:45:54.294Z,28.08
2017-11-17T02:48:21.798Z,29.02
2017-11-17T02:50:49.332Z,25.02
2017-11-17T02:53:16.849Z,25.75
2017-11-17T02:55:45.112Z,30.45
2017-11-17T02:58:13.384Z,26.20
2017-11-17T03:00:41.661Z,24.77
2017-11-17T03:03:09.969Z,30.15
2017-11-17T03:05:37.464Z,30.05
2017-11-17T03:08:04.961Z,29.90
2017-11-17T03:10:33.235Z,26.50
2017-11-17T03:13:01.513Z,33.20
2017-11-17T03:15:29.833Z,24.75
2017-11-17T03:17:57.360Z,29.30
2017-11-17T03:20:25.621Z,22.70
2017-11-17T03:22:53.917Z,26.60
2017-11-17T03:25:22.197Z,28.05
2017-11-17T03:27:49.712Z,25.45
2017-11-17T03:30:17.261Z,28.95
2017-11-17T03:32:44.773Z,27.27
2017-11-17T03:35:12.288Z,25.62
2017-11-17T03:37:39.797Z,27.25
2017-11-17T03:40:07.332Z,29.65
2017-11-17T03:42:35.598Z,28.38
2017-11-17T03:45:03.115Z,24.75
2017-11-17T03:47:30.639Z,30.20
2017-11-17T03:49:58.150Z,27.45
2017-11-17T03:52:25.661Z,25.80
2017-11-17T03:54:53.192Z,26.92
2017-11-17T03:57:20.729Z,26.27
2017-11-17T03:59:48.222Z,21.00
2017-11-17T04:02:16.483Z,23.87
2017-11-17T04:04:44.018Z,24.67
2017-11-17T04:07:11.533Z,21.20
2017-11-17T04:09:39.038Z,28.30
2017-11-17T04:12:06.539Z,20.60
2017-11-17T04:14:34.073Z,25.12
2017-11-17T04:17:01.570Z,23.15
2017-11-17T04:19:29.103Z,28.52
2017-11-17T04:21:57.365Z,25.30
2017-11-17T04:24:24.880Z,30.55
2017-11-17T04:26:52.388Z,29.33
2017-11-17T04:29:19.900Z,28.40
2017-11-17T04:31:47.424Z,28.10
2017-11-17T04:34:15.695Z,28.80
2017-11-17T04:36:43.960Z,28.15
2017-11-17T04:39:12.244Z,30.15
2017-11-17T04:41:40.513Z,33.42
2017-11-17T04:44:08.788Z,32.90
2017-11-17T04:46:37.094Z,36.80
2017-11-17T04:49:04.589Z,30.40
2017-11-17T04:51:32.108Z,35.47
2017-11-17T04:53:59.625Z,35.10
2017-11-17T04:56:27.125Z,39.45
2017-11-17T04:58:54.638Z,41.60
2017-11-17T05:01:22.141Z,37.47
2017-11-17T05:03:49.652Z,32.42
2017-11-17T05:06:17.181Z,39.65
2017-11-17T05:08:44.682Z,43.05
2017-11-17T05:11:12.221Z,34.30
2017-11-17T05:13:39.769Z,34.20
2017-11-17T05:16:07.280Z,33.58
2017-11-17T05:18:35.568Z,31.60
2017-11-17T05:21:03.078Z,36.70
2017-11-17T05:23:30.600Z,40.30
2017-11-17T05:25:58.097Z,40.50
2017-11-17T05:28:25.601Z,33.60
2017-11-17T05:30:53.124Z,32.35
2017-11-17T05:33:20.664Z,42.25
2017-11-17T05:35:48.168Z,40.25
2017-11-17T05:38:16.469Z,35.60
2017-11-17T05:40:43.984Z,40.28
2017-11-17T05:43:11.476Z,43.67
2017-11-17T05:45:38.977Z,38.00
2017-11-17T05:48:06.480Z,38.63
2017-11-17T05:50:34.741Z,33.15
2017-11-17T05:53:03.012Z,44.05
2017-11-17T05:55:30.547Z,33.22
2017-11-17T05:57:58.032Z,34.30
2017-11-17T06:00:26.348Z,36.65
2017-11-17T06:02:53.864Z,41.50
2017-11-17T06:05:21.364Z,35.15
2017-11-17T06:07:49.053Z,36.83
2017-11-17T06:10:16.560Z,36.05
2017-11-17T06:12:44.853Z,42.10
2017-11-17T06:15:12.353Z,39.22
2017-11-17T06:17:39.867Z,37.75
2017-11-17T06:20:07.361Z,40.75
2017-11-17T06:22:34.909Z,37.55
2017-11-17T06:25:02.423Z,34.42
2017-11-17T06:27:30.692Z,36.17
2017-11-17T06:29:58.185Z,37.08
2017-11-17T06:32:25.701Z,36.97
2017-11-17T06:34:53.206Z,35.03
2017-11-17T06:37:20.706Z,38.33
2017-11-17T06:39:48.236Z,43.47
2017-11-17T06:42:15.762Z,36.33
2017-11-17T06:44:44.033Z,35.15
2017-11-17T06:47:12.297Z,34.85
2017-11-17T06:49:40.564Z,40.42
2017-11-17T06:52:08.099Z,39.67
2017-11-17T06:54:35.608Z,37.17
2017-11-17T06:57:03.877Z,40.65
2017-11-17T06:59:32.145Z,45.63
2017-11-17T07:02:00.416Z,37.75
2017-11-17T07:04:28.696Z,44.00
2017-11-17T07:06:57.049Z,38.65
2017-11-17T07:09:24.544Z,41.42
2017-11-17T07:11:52.808Z,41.75
2017-11-17T07:14:21.096Z,45.75
2017-11-17T07:16:49.369Z,39.85
2017-11-17T07:19:17.649Z,39.70
2017-11-17T07:21:45.925Z,36.38
2017-11-17T07:24:14.212Z,44.95
2017-11-17T07:26:41.713Z,42.13
2017-11-17T07:29:09.262Z,39.50
2017-11-17T07:31:36.760Z,39.33
2017-11-17T07:34:04.257Z,42.65
2017-11-17T07:36:31.770Z,34.45
2017-11-17T07:38:59.301Z,38.92
2017-11-17T07:41:26.797Z,36.05
2017-11-17T07:43:55.077Z,41.83
2017-11-17T07:46:23.380Z,34.85
2017-11-17T07:48:50.889Z,32.53
2017-11-17T07:51:18.406Z,35.83
2017-11-17T07:53:45.953Z,36.63
2017-11-17T07:56:13.497Z,36.63
2017-11-17T07:58:41.944Z,30.08
2017-11-17T08:01:09.440Z,37.90
2017-11-17T08:03:37.723Z,32.65
2017-11-17T08:06:05.239Z,31.80
2017-11-17T08:11:25.792Z,35.42
2017-11-17T08:13:54.077Z,38.15
2017-11-17T08:16:21.581Z,35.78
2017-11-17T08:18:49.108Z,37.67
2017-11-17T08:21:16.610Z,38.83
2017-11-17T08:23:44.277Z,31.23
2017-11-17T08:26:11.862Z,35.30
2017-11-17T08:28:40.121Z,39.25
2017-11-17T08:31:07.627Z,35.72
2017-11-17T08:33:35.157Z,39.65
2017-11-17T08:36:03.421Z,39.60
2017-11-17T08:38:31.690Z,39.67
2017-11-17T08:40:59.207Z,35.60
2017-11-17T08:46:00.561Z,32.42
2017-11-17T08:48:28.081Z,38.08
2017-11-17T08:50:56.391Z,32.50
2017-11-17T08:53:23.921Z,35.25
2017-11-17T08:55:52.201Z,36.22
2017-11-17T08:58:20.489Z,31.35
2017-11-17T09:00:47.984Z,38.38
2017-11-17T09:03:15.484Z,39.00
2017-11-17T09:05:43.773Z,34.13
2017-11-17T09:08:12.044Z,41.33
2017-11-17T09:10:40.340Z,38.28
2017-11-17T09:13:07.861Z,42.60
2017-11-17T09:15:35.356Z,38.97
2017-11-17T09:18:02.868Z,40.90
2017-11-17T09:20:30.389Z,43.13
2017-11-17T09:22:57.944Z,40.30
2017-11-17T09:25:25.481Z,35.08
2017-11-17T09:27:53.745Z,40.40
2017-11-17T09:30:22.017Z,32.38
2017-11-17T09:32:50.331Z,39.90
2017-11-17T09:35:17.848Z,34.90
2017-11-17T09:37:45.346Z,34.75
2017-11-17T09:40:12.844Z,38.30
2017-11-17T09:42:40.348Z,31.73
2017-11-17T09:45:08.611Z,33.47
2017-11-17T09:47:36.893Z,32.05
2017-11-17T09:50:05.191Z,32.75
2017-11-17T09:52:32.696Z,37.75
2017-11-17T09:55:00.193Z,38.30
2017-11-17T09:57:27.692Z,32.03
2017-11-17T09:59:55.227Z,39.15
2017-11-17T10:02:22.762Z,30.30
2017-11-17T10:04:51.050Z,34.22
2017-11-17T10:07:18.549Z,31.90
2017-11-17T10:09:46.161Z,30.30
2017-11-17T10:12:14.435Z,35.08
2017-11-17T10:14:42.697Z,28.62
2017-11-17T10:17:10.960Z,33.70
2017-11-17T10:19:38.461Z,29.75
2017-11-17T10:22:05.972Z,31.30
2017-11-17T10:24:34.077Z,26.73
2017-11-17T10:27:02.337Z,31.30
2017-11-17T10:29:30.606Z,27.50
2017-11-17T10:31:58.112Z,30.10
2017-11-17T10:34:25.641Z,25.85
2017-11-17T10:36:53.924Z,31.65
2017-11-17T10:39:22.212Z,25.58
2017-11-17T10:41:49.704Z,27.33
2017-11-17T10:44:17.229Z,30.17
2017-11-17T10:46:44.756Z,28.80
2017-11-17T10:49:12.257Z,28.10
2017-11-17T10:51:39.784Z,26.92
2017-11-17T10:54:08.045Z,24.35
2017-11-17T10:56:35.546Z,23.55
2017-11-17T10:59:04.858Z,23.73
2017-11-17T11:01:32.388Z,28.00
2017-11-17T11:04:00.677Z,27.92
2017-11-17T11:06:28.197Z,24.27
2017-11-17T11:08:55.689Z,25.05
2017-11-17T11:11:28.861Z,29.30
2017-11-17T11:13:57.125Z,28.80
2017-11-17T11:16:25.397Z,24.08
2017-11-17T11:18:52.912Z,29.25
2017-11-17T11:21:20.413Z,24.87
2017-11-17T11:23:47.918Z,25.30
2017-11-17T11:26:15.445Z,25.73
2017-11-17T11:28:43.708Z,32.40
2017-11-17T11:31:11.209Z,29.77
2017-11-17T11:33:38.721Z,26.02
2017-11-17T11:36:06.241Z,31.02
2017-11-17T11:38:33.757Z,27.73
2017-11-17T11:41:02.053Z,28.45
2017-11-17T11:43:29.581Z,27.15
2017-11-17T11:45:57.072Z,31.17
2017-11-17T11:48:24.572Z,28.33
2017-11-17T11:50:52.070Z,32.08
2017-11-17T11:53:20.353Z,30.35
2017-11-17T11:55:47.865Z,30.80
2017-11-17T11:58:15.364Z,30.27
2017-11-17T12:00:43.629Z,25.67
2017-11-17T12:03:11.924Z,30.80
2017-11-17T12:05:40.193Z,25.88
2017-11-17T12:08:08.480Z,29.35
2017-11-17T12:10:35.990Z,27.35
2017-11-17T12:13:03.520Z,46.60
2017-11-17T12:15:31.021Z,30.33
2017-11-17T12:17:58.559Z,24.20
2017-11-17T12:20:26.084Z,30.02
2017-11-17T12:22:53.598Z,29.75
2017-11-17T12:25:21.141Z,33.33
2017-11-17T12:27:48.677Z,28.17
2017-11-17T12:30:16.177Z,34.22
2017-11-17T12:32:43.685Z,31.45
2017-11-17T12:35:11.204Z,32.25
2017-11-17T12:37:39.476Z,41.50
2017-11-17T12:40:06.977Z,66.15
2017-11-17T12:42:34.500Z,46.15
2017-11-17T12:45:02.765Z,45.33
2017-11-17T12:47:30.267Z,75.05
2017-11-17T12:49:57.792Z,32.78
2017-11-17T12:52:26.057Z,36.42
2017-11-17T12:54:53.556Z,27.70
2017-11-17T12:57:21.074Z,28.25
2017-11-17T12:59:48.589Z,22.55
2017-11-17T13:02:16.108Z,23.80
2017-11-17T13:04:44.376Z,27.42
2017-11-17T13:07:12.645Z,27.70
2017-11-17T13:09:40.153Z,22.75
2017-11-17T13:12:07.668Z,22.65
2017-11-17T13:14:35.936Z,22.50
2017-11-17T13:17:03.478Z,21.83
2017-11-17T13:19:30.998Z,25.00
2017-11-17T13:21:58.508Z,22.33
2017-11-17T13:24:26.033Z,23.35
2017-11-17T13:26:53.545Z,24.95
2017-11-17T13:29:21.813Z,25.80
2017-11-17T13:31:50.104Z,23.85
2017-11-17T13:34:18.377Z,24.12
2017-11-17T13:36:46.640Z,23.38
2017-11-17T13:39:14.161Z,27.10
2017-11-17T13:41:41.665Z,23.12
2017-11-17T13:44:09.949Z,31.40
2017-11-17T13:46:38.220Z,30.52
2017-11-17T13:49:06.481Z,24.27
2017-11-17T13:51:34.009Z,27.33
2017-11-17T13:54:01.529Z,29.20
2017-11-17T13:56:29.072Z,29.30
2017-11-17T13:58:57.361Z,28.35
2017-11-17T14:01:25.660Z,31.90
2017-11-17T14:03:53.153Z,28.67
2017-11-17T14:06:20.657Z,26.33
2017-11-17T14:08:48.934Z,29.52
2017-11-17T14:11:16.447Z,28.23
2017-11-17T14:13:43.940Z,29.20
2017-11-17T14:16:12.225Z,29.00
2017-11-17T14:18:40.491Z,29.37
2017-11-17T14:21:08.768Z,29.75
2017-11-17T14:23:37.033Z,31.98
2017-11-17T14:26:05.324Z,29.20
2017-11-17T14:28:33.585Z,30.40
2017-11-17T14:31:01.082Z,30.95
2017-11-17T14:33:28.584Z,31.42
2017-11-17T14:35:56.100Z,34.33
2017-11-17T14:38:23.632Z,29.33
2017-11-17T14:40:51.896Z,28.25
2017-11-17T14:43:20.174Z,27.67
2017-11-17T14:45:48.465Z,28.73
2017-11-17T14:48:16.733Z,28.45
2017-11-17T14:50:45.019Z,25.35
2017-11-17T14:53:12.544Z,30.70
2017-11-17T14:55:41.556Z,29.80
2017-11-17T14:58:09.840Z,27.20
2017-11-17T15:00:38.124Z,26.23
2017-11-17T15:03:06.393Z,31.60
2017-11-17T15:05:34.660Z,27.83
2017-11-17T15:08:02.931Z,35.47
2017-11-17T15:10:30.449Z,30.40
2017-11-17T15:12:57.957Z,30.85
2017-11-17T15:15:26.249Z,27.95
2017-11-17T15:17:54.515Z,33.30
2017-11-17T15:20:22.801Z,28.67
2017-11-17T15:22:51.068Z,28.90
2017-11-17T15:25:19.337Z,29.48
2017-11-17T15:27:47.629Z,28.80
2017-11-17T15:30:15.919Z,22.73
2017-11-17T15:32:43.437Z,28.80
2017-11-17T15:35:12.470Z,26.77
2017-11-17T15:37:39.985Z,30.75
2017-11-17T15:40:07.484Z,28.52
2017-11-17T15:42:34.997Z,29.15
2017-11-17T15:45:04.047Z,25.77
2017-11-17T15:47:31.568Z,25.88
2017-11-17T15:49:59.838Z,34.60
2017-11-17T15:52:27.384Z,28.45
2017-11-17T15:54:54.852Z,27.77
2017-11-17T15:57:22.393Z,25.48
2017-11-17T15:59:49.906Z,27.70
2017-11-17T16:02:17.448Z,29.00
2017-11-17T16:04:45.740Z,24.63
2017-11-17T16:07:13.248Z,25.40
2017-11-17T16:09:40.754Z,25.05
2017-11-17T16:12:09.037Z,28.85
2017-11-17T16:14:36.538Z,25.33
2017-11-17T16:17:04.053Z,28.62
2017-11-17T16:19:31.557Z,25.92
2017-11-17T16:21:59.057Z,29.42
2017-11-17T16:24:27.332Z,26.12
2017-11-17T16:26:55.631Z,29.30
2017-11-17T16:29:23.129Z,30.02
2017-11-17T16:31:50.625Z,31.33
2017-11-17T16:34:18.904Z,30.95
2017-11-17T16:36:47.189Z,30.02
2017-11-17T16:39:14.692Z,28.17
2017-11-17T16:41:42.192Z,26.75
2017-11-17T16:44:10.456Z,32.13
2017-11-17T16:46:37.961Z,30.70
2017-11-17T16:49:05.460Z,29.52
2017-11-17T16:51:32.981Z,32.70
2017-11-17T16:54:00.493Z,33.50
2017-11-17T16:56:28.776Z,32.45
2017-11-17T16:58:57.057Z,31.17
2017-11-17T17:01:25.338Z,32.72
2017-11-17T17:03:53.627Z,29.92
2017-11-17T17:06:21.153Z,30.85
2017-11-17T17:08:49.436Z,35.30
2017-11-17T17:11:17.703Z,32.17
2017-11-17T17:13:45.221Z,31.58
2017-11-17T17:16:12.717Z,32.97
2017-11-17T17:18:40.232Z,38.70
2017-11-17T17:21:07.874Z,31.02
2017-11-17T17:23:35.379Z,32.00
2017-11-17T17:26:02.903Z,36.63
2017-11-17T17:28:30.401Z,33.38
2017-11-17T17:30:57.919Z,32.05
2017-11-17T17:33:25.436Z,34.10
2017-11-17T17:35:52.935Z,31.92
2017-11-17T17:38:20.482Z,34.00
2017-11-17T17:40:48.744Z,30.80
2017-11-17T17:43:17.005Z,30.30
2017-11-17T17:45:45.273Z,34.20
2017-11-17T17:48:13.652Z,33.22
2017-11-17T17:50:41.158Z,33.72
2017-11-17T17:53:08.665Z,36.92
2017-11-17T17:55:36.197Z,30.92
2017-11-17T17:58:03.693Z,33.80
2017-11-17T18:00:31.197Z,39.45
2017-11-17T18:02:58.724Z,36.38
2017-11-17T18:05:27.019Z,33.08
2017-11-17T18:07:54.532Z,42.75
2017-11-17T18:10:22.049Z,37.60
2017-11-17T18:12:49.568Z,38.70
2017-11-17T18:15:17.833Z,40.38
2017-11-17T18:17:45.356Z,37.25
2017-11-17T18:20:12.873Z,43.55
2017-11-17T18:22:41.140Z,34.15
2017-11-17T18:25:09.416Z,36.00
2017-11-17T18:27:37.698Z,41.78
2017-11-17T18:30:05.997Z,33.95
2017-11-17T18:32:33.520Z,43.55
2017-11-17T18:35:01.791Z,39.45
2017-11-17T18:37:29.300Z,37.13
2017-11-17T18:39:56.808Z,39.08
2017-11-17T18:42:25.128Z,40.97
2017-11-17T18:44:53.388Z,40.17
2017-11-17T18:47:21.654Z,39.47
2017-11-17T18:49:49.992Z,41.72
2017-11-17T18:52:17.452Z,41.10
2017-11-17T18:54:44.948Z,40.58
2017-11-17T18:57:13.220Z,38.53
2017-11-17T18:59:41.500Z,39.70
2017-11-17T19:02:09.815Z,38.58
2017-11-17T19:04:38.092Z,45.92
2017-11-17T19:07:05.588Z,40.63
2017-11-17T19:09:33.093Z,41.35
2017-11-17T19:12:00.592Z,44.80
2017-11-17T19:14:28.089Z,40.60
2017-11-17T19:16:56.386Z,43.90
2017-11-17T19:19:23.881Z,40.45
2017-11-17T19:21:51.377Z,46.08
2017-11-17T19:24:19.644Z,42.15
2017-11-17T19:26:47.147Z,42.22
2017-11-17T19:29:14.660Z,41.10
2017-11-17T19:31:42.163Z,40.05
2017-11-17T19:34:09.669Z,45.50
2017-11-17T19:36:37.168Z,44.22
2017-11-17T19:39:04.681Z,34.85
2017-11-17T19:41:32.184Z,42.03
2017-11-17T19:43:59.693Z,43.15
2017-11-17T19:46:27.194Z,44.38
2017-11-17T19:48:54.721Z,40.22
2017-11-17T19:51:22.225Z,46.65
2017-11-17T19:53:49.741Z,40.47
2017-11-17T19:56:17.247Z,43.92
2017-11-17T19:58:44.786Z,46.35
2017-11-17T20:01:12.354Z,44.63
2017-11-17T20:03:39.819Z,47.97
2017-11-17T20:06:07.334Z,39.80
2017-11-17T20:08:36.797Z,48.70
2017-11-17T20:11:04.779Z,44.15
2017-11-17T20:13:32.280Z,46.53
2017-11-17T20:16:00.553Z,46.55
2017-11-17T20:18:28.829Z,48.05
2017-11-17T20:20:57.110Z,49.75
2017-11-17T20:23:25.377Z,46.67
2017-11-17T20:25:53.660Z,50.63
2017-11-17T20:28:21.929Z,51.28
2017-11-17T20:30:49.461Z,50.95
2017-11-17T20:33:16.981Z,44.22
2017-11-17T20:35:44.489Z,44.53
2017-11-17T20:38:12.008Z,51.60
2017-11-17T20:40:39.505Z,46.13
2017-11-17T20:43:07.023Z,50.33
2017-11-17T20:45:34.546Z,50.03
2017-11-17T20:48:02.815Z,51.95
2017-11-17T20:50:30.321Z,43.72
2017-11-17T20:52:58.692Z,51.67
2017-11-17T20:55:26.193Z,46.85
2017-11-17T20:57:54.517Z,43.25
2017-11-17T21:00:22.012Z,46.15
2017-11-17T21:02:49.520Z,46.13
2017-11-17T21:05:17.796Z,43.83
2017-11-17T21:07:46.073Z,44.03
2017-11-17T21:10:14.341Z,48.40
2017-11-17T21:12:42.621Z,46.85
2017-11-17T21:15:10.882Z,44.35
2017-11-17T21:17:38.384Z,52.10
2017-11-17T21:20:05.900Z,47.33
2017-11-17T21:22:33.417Z,44.70
2017-11-17T21:25:00.918Z,49.40
2017-11-17T21:27:28.418Z,47.30
2017-11-17T21:29:55.930Z,46.58
2017-11-17T21:32:23.453Z,49.45
2017-11-17T21:34:50.953Z,44.40
2017-11-17T21:37:18.455Z,53.97
2017-11-17T21:39:45.980Z,45.88
2017-11-17T21:42:14.262Z,46.97
2017-11-17T21:44:42.534Z,43.45
2017-11-17T21:47:10.817Z,48.58
2017-11-17T21:49:39.100Z,45.65
2017-11-17T21:52:07.383Z,43.92
2017-11-17T21:54:34.896Z,47.42
2017-11-17T21:57:02.400Z,45.42
2017-11-17T21:59:29.914Z,50.15
2017-11-17T22:01:57.409Z,48.40
2017-11-17T22:04:25.669Z,52.88
2017-11-17T22:06:53.941Z,46.78
2017-11-17T22:09:22.216Z,47.28
2017-11-17T22:11:49.732Z,48.13
2017-11-17T22:14:17.249Z,49.40
2017-11-17T22:16:45.516Z,46.60
2017-11-17T22:19:13.787Z,45.42
2017-11-17T22:21:42.064Z,46.72
2017-11-17T22:24:10.354Z,47.10
2017-11-17T22:26:38.616Z,49.15
2017-11-17T22:29:06.116Z,44.97
2017-11-17T22:31:33.641Z,48.22
2017-11-17T22:34:01.909Z,51.67
2017-11-17T22:36:29.420Z,49.35
2017-11-17T22:38:56.921Z,48.35
2017-11-17T22:41:24.433Z,49.80
2017-11-17T22:43:51.944Z,44.97
2017-11-17T22:46:20.221Z,49.90
2017-11-17T22:48:48.488Z,44.00
2017-11-17T22:51:15.986Z,42.80
2017-11-17T22:53:43.488Z,43.87
2017-11-17T22:56:10.985Z,39.55
2017-11-17T22:58:38.494Z,49.85
2017-11-17T23:01:06.009Z,44.30
2017-11-17T23:03:33.509Z,41.75
2017-11-17T23:06:01.021Z,48.95
2017-11-17T23:08:29.380Z,45.95
2017-11-17T23:10:58.185Z,45.28
2017-11-17T23:13:26.448Z,41.65
2017-11-17T23:15:54.722Z,46.08
2017-11-17T23:18:22.222Z,42.50
2017-11-17T23:20:49.733Z,49.88
2017-11-17T23:23:17.250Z,43.20
2017-11-17T23:25:44.769Z,45.65
2017-11-17T23:28:13.032Z,46.15
2017-11-17T23:30:40.525Z,50.35
2017-11-17T23:33:08.029Z,42.80
2017-11-17T23:35:35.533Z,46.80
2017-11-17T23:38:03.037Z,50.78
2017-11-17T23:40:30.561Z,46.80
2017-11-17T23:42:58.061Z,48.25
2017-11-17T23:45:25.564Z,44.55
2017-11-17T23:47:53.080Z,52.10
2017-11-17T23:50:20.599Z,49.10
2017-11-17T23:52:48.101Z,44.47
2017-11-17T23:55:15.624Z,45.22
2017-11-17T23:57:43.142Z,50.30
